createdAt,value
2019-03-11T00:00:36.018Z,99340.80
2019-03-11T00:03:08.994Z,99353.73
2019-03-11T00:05:42.854Z,99344.81
2019-03-11T00:08:16.775Z,99333.52
2019-03-11T00:10:50.352Z,99338.04
2019-03-11T00:13:25.168Z,99338.98
2019-03-11T00:15:58.543Z,99327.06
2019-03-11T00:18:31.640Z,99328.19
2019-03-11T00:21:04.333Z,99323.12
2019-03-11T00:23:38.164Z,99319.53
2019-03-11T00:26:11.509Z,99332.36
2019-03-11T00:28:43.760Z,99323.12
2019-03-11T00:31:16.993Z,99330.54
2019-03-11T00:33:50.309Z,99322.50
2019-03-11T00:36:23.875Z,99323.18
2019-03-11T00:38:56.617Z,99318.62
2019-03-11T00:41:30.017Z,99324.93
2019-03-11T00:44:03.768Z,99322.97
2019-03-11T00:46:37.382Z,99329.75
2019-03-11T00:49:10.598Z,99345.18
2019-03-11T00:51:44.362Z,99334.63
2019-03-11T00:54:16.949Z,99331.52
2019-03-11T00:56:49.832Z,99328.17
2019-03-11T00:59:23.524Z,99330.78
2019-03-11T01:01:56.402Z,99329.66
2019-03-11T01:04:29.367Z,99330.67
2019-03-11T01:07:02.100Z,99322.42
2019-03-11T01:09:35.490Z,99318.98
2019-03-11T01:12:08.768Z,99320.88
2019-03-11T01:14:42.588Z,99317.46
2019-03-11T01:17:16.005Z,99305.45
2019-03-11T01:19:49.099Z,99309.74
2019-03-11T01:22:22.860Z,99313.77
2019-03-11T01:24:56.403Z,99308.19
2019-03-11T01:27:29.287Z,99297.31
2019-03-11T01:30:02.321Z,99286.19
2019-03-11T01:32:34.622Z,99290.22
2019-03-11T01:35:08.042Z,99300.47
2019-03-11T01:37:41.309Z,99288.94
2019-03-11T01:40:14.095Z,99289.41
2019-03-11T01:42:46.982Z,99286.13
2019-03-11T01:45:20.553Z,99288.28
2019-03-11T01:47:53.442Z,99278.07
2019-03-11T01:50:26.867Z,99273.66
2019-03-11T01:52:59.433Z,99294.58
2019-03-11T01:55:32.451Z,99285.31
2019-03-11T01:58:06.033Z,99288.28
2019-03-11T02:00:39.556Z,99279.63
2019-03-11T02:03:13.587Z,99282.30
2019-03-11T02:05:47.025Z,99273.06
2019-03-11T02:08:20.547Z,99270.80
2019-03-11T02:10:53.625Z,99266.55
2019-03-11T02:13:26.240Z,99266.34
2019-03-11T02:16:00.027Z,99264.20
2019-03-11T12:13:54.695Z,99568.58
2019-03-11T12:16:27.760Z,99588.00
2019-03-11T12:19:01.675Z,99592.30
2019-03-11T12:21:35.268Z,99576.17
2019-03-11T12:24:09.281Z,99566.44
2019-03-11T12:26:42.678Z,99573.06
2019-03-11T12:29:15.972Z,99569.77
2019-03-11T12:31:48.787Z,99568.72
2019-03-11T12:34:22.378Z,99570.07
2019-03-11T12:36:56.257Z,99572.86
2019-03-11T12:39:29.784Z,99572.43
2019-03-11T12:42:03.376Z,99574.14
2019-03-11T12:44:36.850Z,99567.65
2019-03-11T12:47:10.196Z,99564.99
2019-03-11T12:49:44.190Z,99567.41
2019-03-11T12:52:17.657Z,99573.42
2019-03-11T12:54:50.755Z,99578.38
2019-03-11T12:57:24.237Z,99595.08
2019-03-11T12:59:57.545Z,99589.56
2019-03-11T13:02:31.668Z,99594.91
2019-03-11T13:05:05.194Z,99583.16
2019-03-11T13:07:40.400Z,99587.17
2019-03-11T13:10:14.911Z,99582.51
2019-03-11T13:12:48.034Z,99586.94
2019-03-11T13:15:21.521Z,99589.64
2019-03-11T13:17:55.073Z,99583.94
2019-03-11T13:20:30.991Z,99580.23
2019-03-11T13:23:04.472Z,99590.22
2019-03-11T13:25:38.201Z,99587.42
2019-03-11T13:28:11.352Z,99595.06
2019-03-11T13:30:45.122Z,99597.86
2019-03-11T13:33:18.468Z,99603.25
2019-03-11T13:35:51.629Z,99594.38
2019-03-11T13:38:24.934Z,99593.47
2019-03-11T13:40:57.557Z,99595.30
2019-03-11T13:43:30.933Z,99591.24
2019-03-11T13:46:04.214Z,99594.61
2019-03-11T13:48:37.772Z,99594.97
2019-03-11T13:51:10.827Z,99588.34
2019-03-11T13:53:44.260Z,99581.46
2019-03-11T13:56:18.015Z,99566.98
2019-03-11T13:58:51.350Z,99580.91
2019-03-11T14:01:25.024Z,99583.27
2019-03-11T14:03:59.477Z,99585.95
2019-03-11T14:06:32.857Z,99583.68
2019-03-11T14:09:06.365Z,99591.90
2019-03-11T14:11:41.792Z,99590.32
2019-03-11T14:14:15.522Z,99582.23
2019-03-11T14:16:48.229Z,99573.89
2019-03-11T14:19:21.732Z,99584.41
2019-03-11T14:21:55.426Z,99578.52
2019-03-11T14:24:28.862Z,99590.64
2019-03-11T14:27:02.158Z,99583.44
2019-03-11T14:29:36.116Z,99593.20
2019-03-11T14:32:09.289Z,99579.28
2019-03-11T14:34:42.395Z,99577.59
2019-03-11T14:37:16.262Z,99585.64
2019-03-11T14:39:49.782Z,99592.92
2019-03-11T14:42:23.258Z,99592.46
2019-03-11T14:44:57.044Z,99614.30
2019-03-11T14:47:30.760Z,99608.20
2019-03-11T14:50:05.023Z,99602.52
2019-03-11T14:52:38.382Z,99607.66
2019-03-11T14:55:10.732Z,99615.39
2019-03-11T14:57:44.196Z,99617.24
2019-03-11T15:00:18.461Z,99617.45
2019-03-11T15:02:51.512Z,99631.21
2019-03-11T15:05:24.925Z,99635.66
2019-03-11T15:07:58.803Z,99637.13
2019-03-11T15:10:31.799Z,99627.22
2019-03-11T15:13:04.977Z,99622.84
2019-03-11T15:15:38.343Z,99608.96
2019-03-11T15:18:11.040Z,99603.41
2019-03-11T15:20:44.229Z,99609.84
2019-03-11T15:23:20.804Z,99608.03
2019-03-11T15:25:52.467Z,99602.34
2019-03-11T15:28:25.955Z,99586.78
2019-03-11T15:31:10.113Z,99601.34
2019-03-11T15:33:35.195Z,99593.02
2019-03-11T15:36:09.338Z,99594.88
2019-03-11T15:38:42.100Z,99586.00
2019-03-11T15:41:15.076Z,99580.02
2019-03-11T15:43:48.906Z,99595.16
2019-03-11T15:46:21.982Z,99586.42
2019-03-11T15:48:54.794Z,99588.59
2019-03-11T15:51:36.171Z,99590.07
2019-03-11T15:54:04.443Z,99589.15
2019-03-11T15:56:37.531Z,99591.13
2019-03-11T15:59:10.604Z,99592.89
2019-03-11T16:01:44.026Z,99601.62
2019-03-11T16:04:17.492Z,99604.19
2019-03-11T16:06:50.504Z,99598.34
2019-03-11T16:09:24.443Z,99596.25
2019-03-11T16:11:57.454Z,99609.55
2019-03-11T16:14:31.069Z,99593.45
2019-03-11T16:17:03.360Z,99598.55
2019-03-11T16:19:37.159Z,99607.58
2019-03-11T16:22:10.487Z,99616.99
2019-03-11T16:24:43.987Z,99615.38
2019-03-11T16:27:17.309Z,99611.13
2019-03-11T16:29:50.456Z,99607.97
2019-03-11T16:32:24.104Z,99624.10
2019-03-11T16:34:57.173Z,99629.07
2019-03-11T16:37:31.083Z,99626.79
2019-03-11T16:40:04.666Z,99635.33
2019-03-11T16:42:37.526Z,99636.34
2019-03-11T16:45:11.491Z,99657.30
2019-03-11T16:47:46.001Z,99653.42
2019-03-11T16:50:19.567Z,99656.36
2019-03-11T16:52:52.289Z,99654.55
2019-03-11T16:55:28.029Z,99661.92
2019-03-11T16:58:02.579Z,99681.77
2019-03-11T17:00:38.930Z,99680.97
2019-03-11T17:03:12.542Z,99681.84
2019-03-11T17:05:45.592Z,99686.81
2019-03-11T17:08:19.201Z,99694.88
2019-03-11T17:10:52.261Z,99700.18
2019-03-11T17:13:25.500Z,99709.02
2019-03-11T17:15:58.865Z,99705.13
2019-03-11T17:18:33.323Z,99718.73
2019-03-11T17:21:06.411Z,99736.72
2019-03-11T17:23:39.372Z,99732.97
2019-03-11T17:26:12.702Z,99753.58
2019-03-11T17:28:45.971Z,99773.02
2019-03-11T17:31:19.758Z,99775.13
2019-03-11T17:33:53.142Z,99796.10
2019-03-11T17:36:27.886Z,99795.78
2019-03-11T17:39:00.779Z,99804.64
2019-03-11T17:41:34.686Z,99822.83
2019-03-11T17:44:08.165Z,99832.09
2019-03-11T17:46:41.982Z,99834.92
2019-03-11T17:49:14.680Z,99859.91
2019-03-11T17:51:47.539Z,99860.62
2019-03-11T17:54:22.454Z,99871.20
2019-03-11T17:56:56.350Z,99883.86
2019-03-11T17:59:29.882Z,99888.92
2019-03-11T18:02:03.433Z,99906.19
2019-03-11T18:04:37.474Z,99923.50
2019-03-11T18:07:10.514Z,99937.76
2019-03-11T18:09:44.217Z,99942.23
2019-03-11T18:12:17.801Z,99964.35
2019-03-11T18:14:50.468Z,99974.39
2019-03-11T18:17:23.581Z,99984.14
2019-03-11T18:19:57.171Z,99990.22
2019-03-11T18:22:30.174Z,100005.02
2019-03-11T18:25:03.694Z,100007.79
2019-03-11T18:27:37.571Z,100024.02
2019-03-11T18:30:13.355Z,100038.67
2019-03-11T18:32:46.623Z,100050.86
2019-03-11T18:35:19.904Z,100070.73
2019-03-11T18:38:03.644Z,100074.00
2019-03-11T18:40:27.570Z,100082.30
2019-03-11T18:43:00.959Z,100087.69
2019-03-11T18:45:34.360Z,100101.37
2019-03-11T18:48:08.130Z,100108.20
2019-03-11T18:50:41.290Z,100109.77
2019-03-11T18:53:14.656Z,100124.09
2019-03-11T18:55:48.309Z,100132.71
2019-03-11T18:58:21.514Z,100144.28
2019-03-11T19:00:55.347Z,100143.48
2019-03-11T19:03:28.576Z,100152.67
2019-03-11T19:06:02.453Z,100162.51
2019-03-11T19:08:35.995Z,100178.50
2019-03-11T19:11:08.617Z,100189.81
2019-03-11T19:13:42.214Z,100200.96
2019-03-11T19:16:16.026Z,100203.75
2019-03-11T19:18:49.234Z,100199.23
2019-03-11T19:21:22.714Z,100209.45
2019-03-11T19:23:56.520Z,100212.47
2019-03-11T19:26:30.007Z,100222.53
2019-03-11T19:29:02.624Z,100226.00
2019-03-11T19:31:35.853Z,100228.62
2019-03-11T19:34:09.344Z,100232.02
2019-03-11T19:36:42.339Z,100237.95
2019-03-11T19:39:17.887Z,100232.66
2019-03-11T19:41:51.570Z,100232.07
2019-03-11T19:44:25.524Z,100245.30
2019-03-11T19:46:58.967Z,100249.56
2019-03-11T19:49:32.407Z,100261.45
2019-03-11T19:52:05.620Z,100267.48
2019-03-11T19:54:40.405Z,100277.45
2019-03-11T19:57:13.875Z,100276.81
2019-03-11T19:59:47.369Z,100285.44
2019-03-11T20:02:20.087Z,100291.14
2019-03-11T20:04:53.903Z,100289.62
2019-03-11T20:07:27.316Z,100298.19
2019-03-11T20:10:00.830Z,100304.77
2019-03-11T20:12:34.123Z,100315.05
2019-03-11T20:15:07.866Z,100317.45
2019-03-11T20:17:42.123Z,100314.13
2019-03-11T20:20:16.199Z,100309.75
2019-03-11T20:22:49.928Z,100318.41
2019-03-11T20:25:25.266Z,100321.47
2019-03-11T20:27:59.441Z,100330.59
2019-03-11T20:30:33.051Z,100350.55
2019-03-11T20:33:06.624Z,100354.27
2019-03-11T20:35:40.694Z,100349.37
2019-03-11T20:38:13.787Z,100355.19
2019-03-11T20:40:47.003Z,100346.23
2019-03-11T20:43:20.432Z,100354.51
2019-03-11T20:45:54.007Z,100361.84
2019-03-11T20:48:29.697Z,100358.73
2019-03-11T20:51:03.450Z,100354.63
2019-03-11T20:53:37.025Z,100361.66
2019-03-11T20:56:10.274Z,100371.80
2019-03-11T20:58:44.206Z,100377.49
2019-03-11T21:01:18.387Z,100381.77
2019-03-11T21:03:52.852Z,100384.38
2019-03-11T21:06:26.908Z,100387.95
2019-03-11T21:09:00.959Z,100399.58
2019-03-11T21:11:36.277Z,100401.88
2019-03-11T21:14:11.229Z,100406.80
2019-03-11T21:16:45.007Z,100404.88
2019-03-11T21:19:18.493Z,100402.27
2019-03-11T21:21:52.128Z,100401.02
2019-03-11T21:24:25.555Z,100401.64
2019-03-11T21:26:59.287Z,100406.17
2019-03-11T21:29:32.792Z,100404.31
2019-03-11T21:32:06.792Z,100406.52
2019-03-11T21:34:39.482Z,100402.30
2019-03-11T21:37:15.195Z,100418.95
2019-03-11T21:39:49.384Z,100414.10
2019-03-11T21:42:23.380Z,100421.81
2019-03-11T21:44:56.499Z,100418.75
2019-03-11T21:47:30.653Z,100422.05
2019-03-11T21:50:25.989Z,100424.27
2019-03-11T21:53:00.110Z,100431.72
2019-03-11T21:55:35.122Z,100437.98
2019-03-11T21:58:13.218Z,100439.55
2019-03-11T22:00:43.395Z,100443.06
2019-03-11T22:03:16.731Z,100447.09
2019-03-11T22:05:51.956Z,100448.89
2019-03-11T22:08:25.539Z,100447.16
2019-03-11T22:10:58.632Z,100455.72
2019-03-11T22:13:31.592Z,100451.14
2019-03-11T22:16:04.277Z,100458.80
2019-03-11T22:18:38.559Z,100452.17
2019-03-11T22:21:12.221Z,100454.18
2019-03-11T22:23:48.004Z,100456.45
2019-03-11T22:26:21.668Z,100466.45
2019-03-11T22:28:55.362Z,100471.83
2019-03-11T22:31:29.185Z,100479.05
2019-03-11T22:34:02.377Z,100478.47
2019-03-11T22:36:35.839Z,100480.84
2019-03-11T22:39:09.323Z,100487.26
2019-03-11T22:41:42.324Z,100494.48
2019-03-11T22:44:15.880Z,100496.55
2019-03-11T22:46:49.778Z,100492.42
2019-03-11T22:49:23.655Z,100499.14
2019-03-11T22:51:57.605Z,100502.56
2019-03-11T22:54:30.967Z,100498.41
2019-03-11T22:57:06.102Z,100507.02
2019-03-11T22:59:40.936Z,100509.42
2019-03-11T23:02:16.117Z,100513.16
2019-03-11T23:04:51.407Z,100518.72
2019-03-11T23:07:25.146Z,100520.80
2019-03-11T23:09:59.852Z,100527.28
2019-03-11T23:12:32.834Z,100519.94
2019-03-11T23:15:06.768Z,100522.70
2019-03-11T23:17:40.764Z,100515.98
2019-03-11T23:20:13.949Z,100518.45
2019-03-11T23:22:47.752Z,100512.30
2019-03-11T23:25:21.056Z,100519.03
2019-03-11T23:27:55.382Z,100525.98
2019-03-11T23:30:30.291Z,100518.18
2019-03-11T23:33:05.438Z,100519.57
2019-03-11T23:35:40.275Z,100518.53
2019-03-11T23:38:13.665Z,100518.16
2019-03-11T23:40:47.799Z,100518.40
2019-03-11T23:43:20.507Z,100514.72
2019-03-11T23:45:53.551Z,100515.03
2019-03-11T23:48:28.445Z,100522.19
2019-03-11T23:51:02.870Z,100529.33
2019-03-11T23:53:36.209Z,100523.36
2019-03-11T23:56:09.403Z,100528.48
2019-03-11T23:58:44.321Z,100523.90
